Hunt Field
KLND : now visible

Airfield :











YOU CAN JOIN US ON...

 
LOGIN :

Register | Disclaimer

   EN    FR    IT 

 









Legend :    VFR   Marginal VFR   IFR   Intensive IFR   Very Intensive IFR
Visi :
Ceiling :
>= 8 km
>= 3000ft
5 to 8 km
1000 to 3000 ft
1500m to 5 km
500 to 1000 ft
800 to 1500m
200 to 500 ft
< 800m
< 200 ft
Symbols :   Thunderstorms  Fog  Heavy snow  Heavy precipitations  Wind > 20 kt






- Airport Elevation : 5586 ft


KLND - Hunt Field

CURRENT METAR :
  • 291315Z AUTO 27005KT 3/4SM -SN BR VV013 M03/M03 A3008 RMK AO2 P0002 T10281033

EXPIRED METARs :
  • 291253Z AUTO 25006KT 1 1/4SM -SN BR BKN017 OVC024 M03/M04 A3007 RMK AO2 SNB12 SLP224 P0001 T10331044
  • 291232Z AUTO 1 1/2SM -SN BR BKN025 OVC032 M03/M04 A3007 RMK AO2 SNB12 P0000 T10281044
  • 291224Z AUTO 28004KT 2SM -SN BR OVC029 M03/M04 A3007 RMK AO2 SNB12 P0000 T10331044
  • 291153Z AUTO 27005KT 10SM SCT027 OVC040 M03/M05 A3006 RMK AO2 SNE14 SLP221 P0000 60001 70001 T10331050 11033 21061 53012
  • 291107Z AUTO 26005KT 6SM -SN BR OVC015 M04/M06 A3005 RMK AO2 P0000 T10391056
  • 291053Z AUTO 27005KT 6SM -SN BR OVC013 M04/M05 A3004 RMK AO2 SNE27B47 SLP212 P0000 T10391050

TAF KLND
Valid from the 29 at 12:00 until the 30 at 12:00 UTC


291132Z 2912/3012 VRB04KT 3SM -SN OVC015
FM291600 VRB04KT P6SM VCSH OVC025
FM291900 VRB04KT P6SM VCSH BKN035
FM292200 VRB04KT P6SM SCT060



MET'MAP, your aeronautical weather chart ! - Copyright ORBIFLY December 2007 - Disclaimer

ORBIFLY MET'MAP TEAM :

Programming & Development : Alexandra Zaïnal
Concept & original design : Baudouin d'Aumeries
Assistance for programming : Marc-Olivier Méhu
Technical & hardware support : Manuel Goepfert

Contact : metmap@orbifly.com




SOURCES & CREDITS :

   NOAA       Earth
Advisory